Terminal Aerodrome Forecast
Issued by NWS Sterling, VA

Home | Current Version | Previous Version | Text Only | Print | Product List | Glossary On
Versions: 1 2 3 4 5 6 7 8 9 10 11 12 13
000
FTUS41 KLWX 272300 RRA
TAFMRB
TAF
KMRB 272342Z 2800/2824 15004KT P6SM SKC
     FM280400 VRB03KT P6SM BKN110
     FM281400 00000KT P6SM -RA OVC040
     FM281600 VRB03KT 5SM -RA OVC030
     FM282000 VRB03KT 3SM -RA OVC015=

USA.gov is the U.S. government's official web portal to all federal, state and local government web resources and services.